Time;durP1;ratioP1;P1;durP2;ratioP2;P2;SDS_P1;SDS_P2;PMS_P1;PMS_P2;Temp;Humidity;BMP_temperature;BMP_pressure;BME280_temperature;BME280_humidity;BME280_pressure;Samples;Min_cycle;Max_cycle;Signal;HPM_P1;HPM_P2
2023/12/13 00:01:43;;;;;;;10.23;6.90;;;9.20;98.30;;;10.57;73.10;99692.25;3082207;46;20428;-71
2023/12/13 00:04:12;;;;;;;10.93;7.23;;;9.10;98.30;;;10.51;73.06;99683.31;3081446;46;20494;-71
2023/12/13 00:06:40;;;;;;;9.57;7.53;;;9.10;98.30;;;10.47;73.32;99692.63;3082225;46;20432;-71
2023/12/13 00:09:08;;;;;;;8.10;6.50;;;9.10;98.30;;;10.44;73.32;99681.69;3082180;46;20432;-71
2023/12/13 00:11:37;;;;;;;11.23;7.00;;;9.10;98.30;;;10.46;73.32;99674.44;3082023;46;20440;-69
2023/12/13 00:14:05;;;;;;;11.40;7.30;;;9.10;98.30;;;10.50;73.34;99675.63;3081339;46;21091;-69
2023/12/13 00:16:40;;;;;;;12.67;7.80;;;9.10;98.40;;;10.47;73.24;99671.59;3082233;46;20901;-71
2023/12/13 00:19:08;;;;;;;10.00;7.10;;;9.10;98.40;;;10.41;73.39;99669.75;3081915;46;20484;-75
2023/12/13 00:21:37;;;;;;;11.40;7.77;;;9.10;98.40;;;10.42;73.55;99667.94;3082100;46;20501;-71
2023/12/13 00:24:06;;;;;;;10.00;7.30;;;9.10;98.40;;;10.44;73.48;99661.47;3081206;46;21156;-70
2023/12/13 00:26:34;;;;;;;11.37;8.13;;;9.10;98.40;;;10.47;73.61;99661.06;3081821;46;20459;-71
2023/12/13 00:29:02;;;;;;;10.57;8.03;;;9.00;98.40;;;10.49;73.59;99666.94;3081493;46;20584;-71
2023/12/13 00:31:31;;;;;;;12.13;7.77;;;9.00;98.40;;;10.51;73.28;99664.09;3081994;46;21004;-71
2023/12/13 00:33:59;;;;;;;12.30;8.13;;;9.10;98.50;;;10.55;73.42;99660.88;3081286;46;20488;-69
2023/12/13 00:36:28;;;;;;;10.37;8.37;;;9.10;98.50;;;10.54;73.28;99667.16;3081728;46;20491;-71
2023/12/13 00:38:57;;;;;;;10.40;8.00;;;9.10;98.50;;;10.53;73.49;99660.25;3081907;46;21085;-70
2023/12/13 00:41:25;;;;;;;11.70;8.50;;;9.10;98.50;;;10.52;73.25;99663.91;3080939;46;20570;-70
2023/12/13 00:43:53;;;;;;;10.83;8.23;;;9.00;98.40;;;10.52;73.33;99653.38;3081334;46;20444;-71
2023/12/13 00:46:22;;;;;;;12.93;8.87;;;9.10;98.50;;;10.50;73.42;99652.78;3081533;46;20430;-70
2023/12/13 00:48:51;;;;;;;11.30;8.70;;;9.10;98.40;;;10.49;73.44;99653.78;3081791;46;20439;-71
2023/12/13 00:51:22;;;;;;;13.37;9.53;;;9.00;98.40;;;10.48;73.38;99646.91;3081646;46;20431;-71
2023/12/13 00:53:51;;;;;;;14.13;9.60;;;9.10;98.50;;;10.49;73.32;99648.50;3080466;46;20446;-71
2023/12/13 00:56:19;;;;;;;10.33;8.23;;;9.10;98.50;;;10.50;73.54;99650.16;3081527;46;20475;-70
2023/12/13 00:58:47;;;;;;;13.93;8.63;;;9.00;98.40;;;10.51;73.59;99646.50;3081658;46;20466;-70
2023/12/13 01:01:16;;;;;;;15.43;9.33;;;9.10;98.50;;;10.52;73.55;99637.59;3080924;46;20450;-70
2023/12/13 01:03:45;;;;;;;14.00;9.00;;;9.00;98.50;;;10.58;73.28;99641.22;3081293;46;20473;-69
2023/12/13 01:06:13;;;;;;;12.27;9.27;;;9.00;98.50;;;10.58;73.18;99644.69;3081675;46;20454;-70
2023/12/13 01:08:41;;;;;;;12.43;9.00;;;9.00;98.50;;;10.60;73.04;99634.75;3081601;46;20476;-70
2023/12/13 01:11:10;;;;;;;13.87;9.13;;;9.10;98.50;;;10.62;73.22;99632.75;3081287;46;21068;-71
2023/12/13 01:13:39;;;;;;;14.63;10.43;;;9.10;98.50;;;10.65;73.05;99629.69;3081171;46;21164;-70
2023/12/13 01:16:08;;;;;;;13.90;9.13;;;9.10;98.50;;;10.66;72.89;99636.59;3081261;46;20913;-72
2023/12/13 01:18:36;;;;;;;11.77;9.40;;;9.10;98.50;;;10.66;72.92;99641.03;3081454;46;20515;-70
2023/12/13 01:21:05;;;;;;;12.37;9.70;;;9.10;98.40;;;10.65;72.80;99649.97;3081340;46;20431;-71
2023/12/13 01:23:33;;;;;;;14.20;9.80;;;9.10;98.40;;;10.63;73.01;99639.63;3081099;46;20573;-71
2023/12/13 01:26:02;;;;;;;17.47;9.87;;;9.10;98.40;;;10.62;72.85;99647.72;3081403;46;20482;-70
2023/12/13 01:28:30;;;;;;;13.67;10.23;;;9.20;98.40;;;10.56;73.07;99649.34;3081269;46;20441;-69
2023/12/13 01:30:58;;;;;;;14.50;10.43;;;9.10;98.40;;;10.58;73.20;99652.56;3081694;46;20432;-71
2023/12/13 01:33:27;;;;;;;13.77;10.03;;;9.10;98.30;;;10.61;73.15;99667.16;3080961;46;20463;-71
2023/12/13 01:35:55;;;;;;;14.93;9.67;;;9.10;98.40;;;10.60;73.08;99661.06;3080850;46;20948;-71
2023/12/13 01:38:24;;;;;;;15.13;9.73;;;9.10;98.40;;;10.61;73.21;99672.41;3081148;46;20514;-70
2023/12/13 01:40:53;;;;;;;14.63;10.30;;;9.20;98.40;;;10.63;73.07;99670.38;3080143;46;20998;-72
2023/12/13 01:43:43;;;;;;;16.43;9.83;;;9.10;98.40;;;10.64;72.90;99667.56;3080750;46;21107;-71
2023/12/13 01:46:15;;;;;;;16.30;10.33;;;9.10;98.50;;;10.68;73.16;99668.78;3081253;46;20456;-70
2023/12/13 01:48:45;;;;;;;13.53;10.17;;;9.10;98.40;;;10.70;72.96;99661.47;3080935;46;20519;-70
2023/12/13 01:51:14;;;;;;;15.20;9.93;;;9.10;98.40;;;10.74;72.81;99661.91;3080934;46;20584;-71
2023/12/13 01:53:43;;;;;;;18.77;11.47;;;9.20;98.50;;;10.76;72.68;99665.97;3080667;46;20439;-70
2023/12/13 01:56:12;;;;;;;13.43;9.77;;;9.20;98.50;;;10.71;72.55;99660.47;3080980;46;20474;-71
2023/12/13 01:58:41;;;;;;;15.53;11.00;;;9.20;98.40;;;10.70;72.59;99661.47;3080289;46;20627;-71
2023/12/13 02:01:10;;;;;;;15.53;10.27;;;9.20;98.40;;;10.69;72.79;99662.50;3080826;46;20439;-72
2023/12/13 02:03:39;;;;;;;14.33;11.43;;;9.20;98.40;;;10.65;72.83;99658.66;3080679;46;20560;-71
2023/12/13 02:06:08;;;;;;;15.20;10.87;;;9.20;98.30;;;10.65;72.89;99652.59;3080190;46;20448;-71
2023/12/13 02:08:37;;;;;;;15.13;10.63;;;9.10;98.30;;;10.63;73.06;99660.66;3081070;46;20448;-71
2023/12/13 02:11:06;;;;;;;15.87;11.20;;;9.20;98.40;;;10.61;73.29;99659.25;3080755;46;20443;-70
2023/12/13 02:13:34;;;;;;;16.87;10.07;;;9.20;98.40;;;10.61;73.22;99649.53;3082685;46;21156;-71
2023/12/13 02:16:04;;;;;;;15.20;10.07;;;9.10;98.40;;;10.61;73.04;99654.81;3082829;46;20424;-71
2023/12/13 02:18:32;;;;;;;14.60;11.37;;;9.10;98.40;;;10.57;73.42;99650.97;3083217;46;20500;-71
2023/12/13 02:21:01;;;;;;;13.33;11.13;;;9.10;98.50;;;10.55;73.48;99652.19;3083345;46;20513;-69
2023/12/13 02:23:29;;;;;;;17.60;11.60;;;9.10;98.50;;;10.55;73.60;99658.25;3082756;46;20463;-71
2023/12/13 02:26:05;;;;;;;13.93;11.67;;;9.10;98.50;;;10.50;73.45;99652.78;3083270;46;20628;-70
2023/12/13 02:28:33;;;;;;;18.40;11.57;;;9.10;98.50;;;10.49;73.61;99656.41;3083082;46;20427;-71
2023/12/13 02:31:03;;;;;;;15.43;11.13;;;9.10;98.50;;;10.47;73.62;99655.81;3083107;46;20988;-71
2023/12/13 02:33:31;;;;;;;13.03;10.67;;;9.10;98.60;;;10.43;73.91;99646.69;3082738;46;20525;-70
2023/12/13 02:36:03;;;;;;;14.77;10.27;;;9.00;98.60;;;10.41;73.96;99648.69;3083267;46;21004;-70
2023/12/13 02:38:32;;;;;;;16.87;11.40;;;9.00;98.70;;;10.41;73.98;99656.59;3083211;46;20889;-70
2023/12/13 02:41:01;;;;;;;14.47;11.50;;;9.00;98.70;;;10.43;74.21;99644.06;3082349;46;20434;-70
2023/12/13 02:43:30;;;;;;;16.93;11.37;;;9.00;98.70;;;10.44;74.08;99644.84;3082853;46;20520;-71
2023/12/13 02:45:59;;;;;;;16.67;11.10;;;9.00;98.70;;;10.45;74.24;99644.69;3082342;46;20462;-71
2023/12/13 02:48:27;;;;;;;18.23;11.73;;;9.00;98.80;;;10.44;74.18;99640.41;3081884;46;20477;-69
2023/12/13 02:50:56;;;;;;;14.17;11.27;;;9.00;98.80;;;10.44;74.11;99645.69;3083236;46;20428;-71
2023/12/13 02:53:24;;;;;;;14.97;10.93;;;9.00;98.80;;;10.46;74.38;99637.59;3082421;46;21095;-70
2023/12/13 02:55:52;;;;;;;14.17;10.93;;;9.00;98.80;;;10.45;74.10;99635.97;3082171;46;20492;-70
2023/12/13 02:58:22;;;;;;;16.73;11.63;;;9.00;98.80;;;10.43;74.27;99632.75;3082903;46;20426;-71
2023/12/13 03:00:51;;;;;;;16.00;12.00;;;9.00;98.90;;;10.34;74.50;99621.56;3082741;46;20523;-71
2023/12/13 03:03:19;;;;;;;14.07;11.30;;;9.00;98.90;;;10.37;74.57;99629.06;3082241;46;20544;-71
2023/12/13 03:05:47;;;;;;;18.47;10.97;;;9.00;98.90;;;10.39;74.59;99631.53;3082816;46;20438;-71
2023/12/13 03:08:16;;;;;;;15.87;10.63;;;9.00;98.90;;;10.42;74.54;99631.91;3082754;46;20519;-70
2023/12/13 03:10:45;;;;;;;14.17;10.83;;;9.00;98.90;;;10.44;74.49;99627.25;3082058;46;20427;-71
2023/12/13 03:13:13;;;;;;;14.47;10.90;;;9.00;99.30;;;10.47;74.16;99626.88;3082301;46;20446;-70
2023/12/13 03:15:42;;;;;;;17.13;11.33;;;9.00;99.00;;;10.47;74.32;99628.69;3082830;46;20456;-71
2023/12/13 03:18:10;;;;;;;14.40;10.43;;;9.00;99.00;;;10.49;74.62;99624.84;3082005;46;20432;-71
2023/12/13 03:20:39;;;;;;;16.60;10.50;;;9.00;98.90;;;10.53;74.18;99623.41;3082696;46;20466;-70
2023/12/13 03:23:09;;;;;;;16.60;11.37;;;9.00;99.00;;;10.56;73.99;99625.66;3081649;46;20451;-71
2023/12/13 03:25:37;;;;;;;13.43;10.30;;;9.00;99.00;;;10.59;73.85;99611.28;3082537;46;20429;-71
2023/12/13 03:28:06;;;;;;;16.47;11.30;;;9.00;98.90;;;10.61;73.75;99610.06;3082362;46;20930;-70
2023/12/13 03:30:34;;;;;;;14.00;10.37;;;9.00;98.90;;;10.63;73.78;99618.56;3082442;46;21043;-70
2023/12/13 03:33:03;;;;;;;14.17;10.30;;;9.10;99.00;;;10.63;73.65;99613.31;3081968;46;21005;-73
2023/12/13 03:35:32;;;;;;;14.40;10.63;;;9.10;98.90;;;10.65;73.62;99627.06;3082871;46;20439;-71
2023/12/13 03:38:00;;;;;;;13.47;10.37;;;9.10;98.90;;;10.65;73.62;99616.53;3082111;46;20428;-70
2023/12/13 03:40:28;;;;;;;14.40;10.80;;;9.10;98.90;;;10.64;73.72;99622.84;3082608;46;20484;-70
2023/12/13 03:42:57;;;;;;;16.17;11.03;;;9.10;98.80;;;10.65;73.79;99621.03;3081104;46;20464;-71
2023/12/13 03:45:26;;;;;;;12.70;10.17;;;9.10;98.80;;;10.67;73.96;99619.00;3082312;46;20458;-71
2023/12/13 03:47:54;;;;;;;15.93;10.80;;;9.10;98.90;;;10.66;73.63;99618.19;3082230;46;20457;-70
2023/12/13 03:50:23;;;;;;;17.03;11.47;;;9.10;98.80;;;10.68;73.55;99616.16;3081948;46;20544;-71
2023/12/13 03:52:52;;;;;;;14.43;10.03;;;9.10;98.80;;;10.72;73.62;99616.56;3081745;46;21104;-70
2023/12/13 03:55:20;;;;;;;13.17;10.50;;;9.10;98.90;;;10.74;73.56;99615.31;3082395;46;20439;-71
2023/12/13 03:57:48;;;;;;;17.20;10.70;;;9.20;98.90;;;10.77;73.24;99612.28;3082003;46;20439;-70
2023/12/13 04:00:17;;;;;;;14.30;10.70;;;9.10;98.90;;;10.76;73.35;99613.31;3082122;46;20460;-70
2023/12/13 04:02:45;;;;;;;14.37;10.47;;;9.20;98.90;;;10.78;73.32;99613.94;3081692;46;20440;-70
2023/12/13 04:05:14;;;;;;;13.60;10.57;;;9.20;98.90;;;10.80;73.32;99619.78;3082065;46;21058;-71
2023/12/13 04:07:42;;;;;;;13.03;10.67;;;9.20;98.90;;;10.83;73.26;99614.13;3080863;46;20561;-72
2023/12/13 04:10:11;;;;;;;12.77;9.93;;;9.20;98.90;;;10.89;73.42;99620.38;3081804;46;20491;-71
2023/12/13 04:12:40;;;;;;;15.73;10.63;;;9.20;98.90;;;10.91;72.90;99614.94;3081629;46;20435;-70
2023/12/13 04:15:09;;;;;;;14.20;11.27;;;9.20;98.90;;;10.93;73.17;99616.34;3081323;46;20457;-71
2023/12/13 04:17:37;;;;;;;13.10;10.70;;;9.20;98.90;;;10.94;73.00;99617.94;3081514;46;20503;-72
2023/12/13 04:20:07;;;;;;;16.57;11.33;;;9.30;98.90;;;10.95;72.87;99614.31;3081967;46;20513;-71
2023/12/13 04:22:35;;;;;;;15.30;11.83;;;9.30;98.90;;;10.98;73.21;99618.38;3081685;46;20473;-71
2023/12/13 04:25:05;;;;;;;13.93;11.47;;;9.30;98.80;;;10.99;72.93;99610.25;3081365;46;20451;-70
2023/12/13 04:27:33;;;;;;;13.87;11.23;;;9.30;98.80;;;11.01;72.92;99610.03;3081670;46;20545;-73
2023/12/13 04:30:03;;;;;;;17.70;12.03;;;9.30;98.80;;;11.03;72.67;99610.66;3081645;46;20438;-70
2023/12/13 04:32:31;;;;;;;16.67;12.13;;;9.30;98.80;;;11.01;72.54;99610.03;3081372;46;20485;-70
2023/12/13 04:34:59;;;;;;;16.20;12.43;;;9.30;98.70;;;10.98;72.67;99608.66;3081109;46;20528;-71
2023/12/13 04:37:28;;;;;;;14.90;11.60;;;9.40;98.70;;;10.95;72.67;99610.88;3081552;46;20530;-71
2023/12/13 04:39:58;;;;;;;17.47;12.47;;;9.40;98.60;;;10.93;72.77;99611.06;3080941;46;21067;-71
2023/12/13 04:42:26;;;;;;;15.70;11.73;;;9.30;98.60;;;10.95;72.98;99602.97;3079941;46;20436;-71
2023/12/13 04:44:55;;;;;;;20.70;13.00;;;9.30;98.60;;;10.95;72.67;99613.50;3081566;46;20532;-70
2023/12/13 04:47:24;;;;;;;17.90;14.10;;;9.30;98.60;;;10.92;72.87;99606.00;3081906;46;21123;-70
2023/12/13 04:49:52;;;;;;;16.90;13.20;;;9.30;98.60;;;10.91;72.92;99604.41;3079893;46;20439;-72
2023/12/13 04:52:21;;;;;;;16.63;13.13;;;9.30;98.60;;;10.91;72.86;99609.66;3081200;46;20428;-73
2023/12/13 04:54:49;;;;;;;23.97;14.47;;;9.30;98.60;;;10.91;72.99;99609.66;3081337;46;20472;-70
2023/12/13 04:57:20;;;;;;;19.50;13.97;;;9.30;98.60;;;10.91;73.07;99609.66;3081539;46;20472;-71
2023/12/13 04:59:48;;;;;;;20.03;14.37;;;9.30;98.70;;;10.91;72.98;99607.81;3081352;46;20469;-71
2023/12/13 05:02:17;;;;;;;22.97;13.70;;;9.30;98.70;;;10.92;73.02;99606.81;3081569;46;20450;-70
2023/12/13 05:04:46;;;;;;;22.73;13.87;;;9.30;98.70;;;10.93;73.05;99607.63;3080869;46;20455;-70
2023/12/13 05:07:15;;;;;;;18.17;13.43;;;9.30;98.70;;;10.94;73.09;99609.22;3081614;46;20440;-71
2023/12/13 05:09:44;;;;;;;19.47;14.20;;;9.30;98.70;;;10.93;73.06;99607.63;3081006;46;20568;-70
2023/12/13 05:12:12;;;;;;;19.40;13.57;;;9.40;98.70;;;10.92;73.07;99608.63;3081240;46;20431;-69
2023/12/13 05:14:40;;;;;;;18.23;14.20;;;9.30;98.70;;;10.89;73.09;99608.03;3080432;46;20463;-71
2023/12/13 05:17:09;;;;;;;21.87;15.43;;;9.40;98.70;;;10.85;73.30;99606.84;3081404;46;20501;-70
2023/12/13 05:19:37;;;;;;;21.57;15.57;;;9.30;98.70;;;10.84;73.28;99604.38;3081537;46;20432;-70
2023/12/13 05:22:06;;;;;;;21.67;14.90;;;9.30;98.70;;;10.81;73.33;99608.25;3081393;46;20468;-73
2023/12/13 05:24:35;;;;;;;21.47;14.37;;;9.30;98.70;;;10.81;73.46;99612.72;3080522;46;20541;-70
2023/12/13 05:27:04;;;;;;;22.43;15.07;;;9.30;98.80;;;10.82;73.57;99607.22;3081385;46;20428;-71
2023/12/13 05:29:34;;;;;;;19.47;14.83;;;9.30;98.80;;;10.84;73.62;99607.84;3080392;46;20565;-70
2023/12/13 05:32:03;;;;;;;24.93;16.93;;;9.30;98.80;;;10.86;73.52;99607.66;3081129;46;20432;-70
2023/12/13 05:34:31;;;;;;;24.83;16.13;;;9.30;98.90;;;10.87;73.42;99610.06;3080373;46;20447;-70
2023/12/13 05:37:05;;;;;;;23.80;16.43;;;9.30;98.90;;;10.90;73.53;99614.13;3081328;46;21003;-71
2023/12/13 05:39:33;;;;;;;26.77;16.97;;;9.30;98.90;;;10.93;73.52;99612.91;3080574;46;20518;-70
2023/12/13 05:42:02;;;;;;;25.67;17.53;;;9.30;98.90;;;10.94;73.35;99609.22;3080253;46;20584;-71
2023/12/13 05:44:31;;;;;;;24.50;16.37;;;9.30;99.00;;;10.94;73.44;99610.03;3080422;46;20556;-70
2023/12/13 05:46:59;;;;;;;26.37;17.80;;;9.40;99.00;;;10.96;73.35;99610.66;3082601;46;20576;-71
2023/12/13 05:49:27;;;;;;;33.77;18.80;;;9.40;99.00;;;11.00;73.32;99611.06;3082781;46;20427;-71
2023/12/13 05:51:56;;;;;;;25.87;16.50;;;9.40;99.00;;;11.02;73.30;99609.84;3083533;46;20549;-71
2023/12/13 05:54:24;;;;;;;26.60;17.67;;;9.40;99.00;;;11.06;73.29;99610.22;3082605;46;20462;-72
2023/12/13 05:56:52;;;;;;;24.67;16.23;;;9.40;99.00;;;11.09;73.18;99612.47;3083364;46;20477;-70
2023/12/13 05:59:21;;;;;;;32.00;17.97;;;9.40;99.00;;;11.12;73.07;99614.69;3082847;46;20489;-71
2023/12/13 06:01:49;;;;;;;25.93;16.73;;;9.40;99.00;;;11.14;73.29;99610.03;3083158;46;20423;-71
2023/12/13 06:04:18;;;;;;;26.47;15.50;;;9.40;99.00;;;11.19;73.01;99618.13;3082893;46;21107;-69
2023/12/13 06:06:48;;;;;;;29.50;18.27;;;9.50;99.00;;;11.22;73.12;99615.88;3083360;46;21031;-69
2023/12/13 06:09:16;;;;;;;28.37;16.50;;;9.50;99.00;;;11.24;72.71;99618.31;3082594;46;20993;-70
2023/12/13 06:11:45;;;;;;;24.67;16.53;;;9.50;99.00;;;11.24;72.63;99620.94;3082349;46;20431;-69
2023/12/13 06:14:13;;;;;;;28.40;17.90;;;9.50;98.90;;;11.25;72.65;99617.28;3082725;46;20581;-70
2023/12/13 06:16:41;;;;;;;28.43;18.80;;;9.50;98.90;;;11.24;72.55;99620.94;3083393;46;20431;-71
2023/12/13 06:19:10;;;;;;;28.83;19.07;;;9.50;98.80;;;11.24;72.66;99623.59;3082703;46;20455;-71
2023/12/13 06:21:39;;;;;;;24.67;18.00;;;9.50;98.80;;;11.24;72.56;99619.13;3083018;46;20434;-69
2023/12/13 06:24:07;;;;;;;27.63;18.07;;;9.50;98.80;;;11.25;72.52;99622.53;3082596;46;20451;-71
2023/12/13 06:26:35;;;;;;;26.63;16.33;;;9.50;98.80;;;11.24;72.48;99615.69;3083287;46;20528;-69
2023/12/13 06:29:04;;;;;;;25.53;17.97;;;9.50;98.80;;;11.23;72.63;99624.59;3082568;46;20428;-71
2023/12/13 06:31:32;;;;;;;25.30;16.87;;;9.50;98.80;;;11.23;72.68;99621.94;3082849;46;20444;-69
2023/12/13 06:34:01;;;;;;;25.50;17.10;;;9.50;98.80;;;11.24;72.69;99626.22;3082741;46;20444;-69
2023/12/13 06:36:29;;;;;;;26.27;17.77;;;9.50;98.80;;;11.25;72.62;99623.38;3083041;46;20456;-71
2023/12/13 06:38:58;;;;;;;21.97;15.00;;;9.50;98.90;;;11.27;72.59;99623.16;3082449;46;20474;-70
2023/12/13 06:41:27;;;;;;;24.83;17.43;;;9.50;98.90;;;11.25;72.56;99628.63;3082947;46;20495;-70
2023/12/13 06:43:56;;;;;;;26.40;17.90;;;9.50;98.80;;;11.25;72.61;99628.63;3082448;46;20442;-69
2023/12/13 06:46:25;;;;;;;26.80;17.87;;;9.50;98.80;;;11.23;72.47;99625.41;3082932;46;21027;-71
2023/12/13 06:48:55;;;;;;;27.13;19.43;;;9.60;98.90;;;11.24;72.69;99631.47;3082261;46;20450;-71
2023/12/13 06:51:23;;;;;;;28.77;20.33;;;9.50;98.80;;;11.23;72.70;99628.03;3082658;46;20983;-71
2023/12/13 06:53:51;;;;;;;22.40;16.47;;;9.50;98.90;;;11.26;72.62;99639.97;3082225;46;20438;-71
2023/12/13 06:56:24;;;;;;;22.90;17.13;;;9.50;98.90;;;11.27;72.71;99638.94;3082120;43;20452;-72
2023/12/13 06:59:00;;;;;;;27.07;18.60;;;9.60;98.90;;;11.25;72.64;99639.16;3080344;46;20563;-73
2023/12/13 07:01:37;;;;;;;21.83;15.67;;;9.60;98.90;;;11.24;72.73;99640.19;3081638;46;20444;-70
2023/12/13 07:04:05;;;;;;;22.33;15.90;;;9.50;98.80;;;11.24;72.56;99639.38;3079594;46;20545;-71
2023/12/13 07:06:34;;;;;;;22.77;16.93;;;9.50;98.90;;;11.26;72.64;99647.88;3080326;46;20504;-70
2023/12/13 07:09:02;;;;;;;31.33;21.30;;;9.60;98.90;;;11.26;72.60;99639.97;3081014;46;20456;-72
2023/12/13 07:11:31;;;;;;;22.27;16.37;;;9.60;98.90;;;11.28;72.76;99643.22;3080209;46;20685;-73
2023/12/13 07:13:59;;;;;;;19.90;14.17;;;9.60;99.00;;;11.28;72.79;99651.94;3078278;46;20483;-73
2023/12/13 07:16:28;;;;;;;23.10;15.93;;;9.60;98.90;;;11.30;72.80;99646.44;3079662;46;21038;-72
2023/12/13 07:18:56;;;;;;;23.67;15.83;;;9.60;98.90;;;11.32;72.70;99657.59;3078445;46;20502;-71
2023/12/13 07:21:25;;;;;;;21.10;15.03;;;9.60;98.90;;;11.32;72.63;99650.50;3078807;43;20424;-72
2023/12/13 07:23:53;;;;;;;23.20;15.50;;;9.60;99.00;;;11.34;72.60;99655.56;3081917;46;20439;-71
2023/12/13 07:26:22;;;;;;;23.87;15.77;;;9.60;99.00;;;11.35;72.59;99660.63;3081766;46;20457;-72
2023/12/13 07:28:53;;;;;;;22.20;14.47;;;9.60;98.90;;;11.35;72.67;99659.81;3080996;46;20561;-71
2023/12/13 07:31:23;;;;;;;20.20;14.17;;;9.60;98.90;;;11.34;72.54;99661.63;3081751;46;20452;-72
2023/12/13 07:33:51;;;;;;;23.43;15.07;;;9.60;98.80;;;11.34;72.54;99666.09;3081445;46;20566;-70
2023/12/13 07:36:19;;;;;;;19.67;13.57;;;9.60;98.80;;;11.33;72.46;99673.22;3082165;46;20439;-71
2023/12/13 07:38:48;;;;;;;18.50;13.10;;;9.60;98.80;;;11.33;72.48;99661.84;3082537;46;20423;-71
2023/12/13 07:41:16;;;;;;;16.63;12.80;;;9.60;99.10;;;11.32;72.52;99670.75;3081293;46;20456;-71
2023/12/13 07:43:45;;;;;;;18.70;13.60;;;9.60;98.80;;;11.30;72.30;99667.53;3081421;46;20464;-71
2023/12/13 07:46:16;;;;;;;18.07;12.90;;;9.60;98.70;;;11.27;72.21;99678.47;3080754;46;20431;-71
2023/12/13 07:48:45;;;;;;;18.63;12.70;;;9.60;98.70;;;11.25;72.30;99672.59;3081328;46;20458;-72
2023/12/13 07:51:13;;;;;;;16.03;12.70;;;9.60;98.60;;;11.24;72.38;99679.72;3081642;46;21039;-72
2023/12/13 07:53:42;;;;;;;14.57;11.90;;;9.60;98.70;;;11.24;72.41;99684.16;3080836;46;20507;-72
2023/12/13 07:56:12;;;;;;;17.20;12.30;;;9.50;99.00;;;11.23;72.33;99677.25;3080344;43;20549;-70
2023/12/13 07:58:53;;;;;;;36.67;28.00;;;9.50;98.70;;;11.22;72.30;99686.19;3081962;46;21154;-72
2023/12/13 08:01:24;;;;;;;19.00;13.87;;;9.50;98.70;;;11.21;72.30;99684.56;3080231;46;21077;-70
2023/12/13 08:03:53;;;;;;;19.07;12.10;;;9.50;98.70;;;11.21;72.41;99684.56;3080036;46;20483;-72
2023/12/13 08:06:21;;;;;;;17.90;12.33;;;9.50;98.70;;;11.20;72.42;99688.19;3080327;46;20432;-72
2023/12/13 08:08:53;;;;;;;19.37;12.90;;;9.50;98.70;;;11.19;72.39;99691.84;3081429;46;20547;-71
2023/12/13 08:11:21;;;;;;;20.37;12.73;;;9.50;98.80;;;11.20;72.49;99688.19;3079784;43;20990;-71
2023/12/13 08:13:50;;;;;;;17.53;12.37;;;9.50;98.80;;;11.19;72.36;99694.50;3080336;46;20458;-71
2023/12/13 08:16:18;;;;;;;15.30;11.33;;;9.50;98.80;;;11.18;72.48;99698.13;3079217;46;21097;-71
2023/12/13 08:18:47;;;;;;;21.70;11.73;;;9.50;98.80;;;11.17;72.43;99693.88;3080477;46;20502;-71
2023/12/13 08:21:16;;;;;;;17.13;11.13;;;9.50;98.70;;;11.18;72.62;99698.13;3080016;46;21063;-72
2023/12/13 08:23:44;;;;;;;12.43;9.47;;;9.50;98.80;;;11.19;72.29;99697.13;3079117;43;20471;-71
2023/12/13 08:26:12;;;;;;;16.43;10.10;;;9.40;98.60;;;11.17;72.42;99701.78;3079836;46;20435;-71
2023/12/13 08:28:43;;;;;;;33.13;24.60;;;9.40;98.60;;;11.15;72.26;99701.19;3079598;46;20448;-72
2023/12/13 08:31:17;;;;;;;26.67;20.73;;;9.40;98.60;;;11.12;72.10;99701.59;3078990;46;21147;-74
2023/12/13 08:33:53;;;;;;;14.40;11.07;;;9.40;98.60;;;11.12;72.35;99706.84;3077311;46;20469;-72
2023/12/13 08:36:23;;;;;;;13.20;10.10;;;9.40;98.70;;;11.12;72.29;99705.03;3079498;46;20549;-75
2023/12/13 08:39:02;;;;;;;11.03;7.93;;;9.40;98.70;;;11.13;72.35;99705.81;3076839;46;20444;-73
2023/12/13 08:41:38;;;;;;;10.00;8.10;;;9.40;98.70;;;11.12;72.21;99707.69;3075802;46;20461;-74
2023/12/13 08:44:09;;;;;;;11.23;8.57;;;9.40;98.60;;;11.10;72.08;99709.69;3075926;46;20480;-72
2023/12/13 08:46:38;;;;;;;8.77;7.87;;;9.40;98.60;;;11.11;72.13;99719.22;3077913;46;21039;-73
2023/12/13 08:49:07;;;;;;;10.70;8.17;;;9.40;98.60;;;11.09;72.11;99712.53;3075705;46;20448;-73
2023/12/13 08:51:35;;;;;;;10.73;8.10;;;9.40;98.50;;;11.07;72.13;99714.56;3076947;46;21080;-73
2023/12/13 08:54:04;;;;;;;10.67;8.13;;;9.40;98.50;;;11.05;71.85;99717.41;3079643;46;20465;-71
2023/12/13 08:56:33;;;;;;;9.30;6.93;;;9.40;98.40;;;11.03;72.12;99724.66;3077821;46;20568;-70
2023/12/13 08:59:02;;;;;;;9.47;7.40;;;9.40;98.40;;;11.04;72.13;99728.13;3080397;43;20502;-71
2023/12/13 09:01:31;;;;;;;8.27;6.23;;;9.30;98.40;;;11.04;71.97;99728.94;3080402;46;21001;-71
2023/12/13 09:03:59;;;;;;;12.97;7.50;;;9.30;98.50;;;11.07;71.86;99732.97;3078663;46;21117;-71
2023/12/13 09:06:28;;;;;;;10.80;9.77;;;9.30;98.50;;;11.08;72.08;99731.97;3078672;46;20528;-72
2023/12/13 09:08:56;;;;;;;8.27;7.00;;;9.30;98.50;;;11.10;72.11;99736.00;3080482;46;20428;-71
2023/12/13 09:11:25;;;;;;;7.63;6.17;;;9.30;98.50;;;11.13;71.96;99745.31;3080394;46;20449;-71
2023/12/13 09:13:53;;;;;;;6.70;6.00;;;9.40;98.60;;;11.13;72.00;99738.25;3079481;46;21056;-70
2023/12/13 09:16:22;;;;;;;10.43;7.37;;;9.40;98.60;;;11.15;71.90;99738.06;3079468;46;21032;-72
2023/12/13 09:18:50;;;;;;;7.93;6.73;;;9.40;98.60;;;11.16;71.74;99740.47;3080433;46;20451;-71
2023/12/13 09:21:19;;;;;;;7.33;5.73;;;9.40;98.50;;;11.17;71.44;99746.56;3079969;46;21005;-71
2023/12/13 09:23:48;;;;;;;7.90;5.97;;;9.40;98.30;;;11.15;70.89;99743.31;3078777;46;20549;-70
2023/12/13 09:26:27;;;;;;;8.83;6.30;;;9.40;98.10;;;11.12;71.29;99749.81;3078555;43;21043;-72
2023/12/13 09:28:59;;;;;;;7.43;5.90;;;9.40;98.20;;;11.13;71.37;99745.31;3079173;46;20515;-73
2023/12/13 09:31:48;;;;;;;9.37;7.17;;;9.40;98.20;;;11.07;71.51;99751.41;3078241;46;20496;-73
2023/12/13 09:34:17;;;;;;;8.30;6.67;;;9.40;98.10;;;11.07;71.36;99751.41;3076882;46;20682;-71
2023/12/13 09:36:46;;;;;;;11.20;9.00;;;9.40;98.10;;;11.08;71.57;99755.69;3078749;46;20471;-71
2023/12/13 09:39:16;;;;;;;11.13;8.93;;;9.40;98.20;;;11.09;71.46;99754.66;3079103;46;20428;-69
2023/12/13 09:42:03;;;;;;;10.77;8.63;;;9.40;98.30;;;11.07;71.47;99756.69;3080442;46;20428;-74
2023/12/13 09:44:39;;;;;;;10.90;7.43;;;9.40;98.20;;;11.13;71.30;99766.41;3078243;43;20505;-70
2023/12/13 09:47:09;;;;;;;10.57;7.20;;;9.40;98.20;;;11.12;71.07;99764.78;3079648;46;21033;-72
2023/12/13 09:49:39;;;;;;;10.67;7.40;;;9.40;98.00;;;11.12;71.11;99765.59;3075635;46;21019;-70
2023/12/13 09:52:11;;;;;;;17.90;14.97;;;9.40;98.00;;;11.12;71.28;99759.53;3078770;46;20467;-71
2023/12/13 09:54:44;;;;;;;10.10;8.97;;;9.40;98.10;;;11.14;70.93;99763.56;3075295;43;20479;-73
2023/12/13 09:57:15;;;;;;;9.90;7.13;;;9.40;98.10;;;11.16;71.17;99769.44;3075104;46;20524;-72
2023/12/13 09:59:45;;;;;;;10.67;7.00;;;9.40;98.00;;;11.17;71.14;99762.38;3075882;46;20459;-71
2023/12/13 10:02:17;;;;;;;9.17;6.87;;;9.40;98.00;;;11.20;70.96;99767.22;3076027;46;20459;-71
2023/12/13 10:04:47;;;;;;;8.13;6.53;;;9.40;98.10;;;11.21;70.76;99760.94;3076439;46;20609;-73
2023/12/13 10:07:15;;;;;;;7.47;6.17;;;9.40;98.00;;;11.19;70.53;99770.88;3076594;46;20436;-72
2023/12/13 10:09:45;;;;;;;8.83;6.93;;;9.40;97.80;;;11.16;70.60;99773.91;3077127;46;21130;-71
2023/12/13 10:12:16;;;;;;;9.00;6.57;;;9.40;97.70;;;11.14;70.56;99773.28;3079241;46;20564;-70
2023/12/13 10:14:44;;;;;;;8.03;6.63;;;9.40;97.80;;;11.12;70.44;99775.31;3079410;46;21072;-70
2023/12/13 10:17:12;;;;;;;10.83;7.50;;;9.40;97.60;;;11.09;70.51;99786.25;3079333;46;20459;-71
2023/12/13 10:19:47;;;;;;;10.13;7.10;;;9.40;97.60;;;11.05;70.49;99780.59;3080534;46;20438;-71
2023/12/13 10:22:18;;;;;;;8.67;6.67;;;9.40;97.60;;;11.04;70.58;99778.97;3079377;46;21060;-67
2023/12/13 10:24:47;;;;;;;11.50;6.83;;;9.40;97.70;;;11.06;70.69;99786.66;3080328;46;20439;-70